Time;durP1;ratioP1;P1;durP2;ratioP2;P2;SDS_P1;SDS_P2;PMS_P1;PMS_P2;Temp;Humidity;BMP_temperature;BMP_pressure;BME280_temperature;BME280_humidity;BME280_pressure;Samples;Min_cycle;Max_cycle;Signal;HPM_P1;HPM_P2
2022/05/03 00:02:24;;;;;;;11.02;6.65;;;5.30;99.90;;;;;;5014568;28;20021;-61
2022/05/03 00:05:03;;;;;;;12.85;7.03;;;5.40;99.90;;;;;;5047657;28;20033;-61
2022/05/03 00:07:35;;;;;;;13.35;7.10;;;5.60;99.90;;;;;;5023087;28;20017;-62
2022/05/03 00:10:11;;;;;;;8.65;5.65;;;5.70;99.90;;;;;;5027683;28;20017;-61
2022/05/03 00:12:40;;;;;;;;;;;5.90;99.90;;;;;;5024674;28;20112;-61
2022/05/03 00:15:06;;;;;;;7.95;5.40;;;6.10;99.90;;;;;;5046922;28;20366;-61
2022/05/03 00:17:33;;;;;;;9.15;5.78;;;6.30;99.90;;;;;;5036580;28;20041;-61
2022/05/03 00:19:59;;;;;;;8.50;6.45;;;6.40;99.90;;;;;;5054271;28;20017;-62
2022/05/03 00:22:26;;;;;;;7.30;5.70;;;6.50;99.90;;;;;;5035821;28;20119;-61
2022/05/03 00:24:54;;;;;;;7.78;6.13;;;6.70;99.90;;;;;;5052261;28;20109;-62
2022/05/03 00:27:26;;;;;;;7.28;5.53;;;6.80;99.90;;;;;;5034738;28;20528;-61
2022/05/03 00:29:53;;;;;;;8.50;5.57;;;6.90;99.90;;;;;;5038714;28;20029;-62
2022/05/03 00:32:21;;;;;;;6.53;5.03;;;7.00;99.90;;;;;;5054176;28;20039;-62
2022/05/03 00:34:48;;;;;;;7.72;5.15;;;7.10;99.90;;;;;;5044899;28;20566;-62
2022/05/03 00:37:13;;;;;;;5.88;5.00;;;7.20;99.90;;;;;;5053836;28;20086;-62
2022/05/03 00:39:38;;;;;;;6.90;5.78;;;7.20;99.90;;;;;;5044035;28;20029;-62
2022/05/03 00:42:22;;;;;;;7.45;5.28;;;7.30;99.90;;;;;;5053841;28;20103;-62
2022/05/03 00:45:19;;;;;;;7.95;5.88;;;7.40;99.90;;;;;;5044745;28;20400;-62
2022/05/03 00:47:53;;;;;;;5.43;4.18;;;7.40;99.90;;;;;;5014296;28;20120;-62
2022/05/03 00:50:56;;;;;;;10.10;5.75;;;7.50;99.90;;;;;;5051678;28;20120;-61
2022/05/03 00:53:24;;;;;;;9.60;4.95;;;7.50;99.90;;;;;;5051895;28;20029;-63
2022/05/03 00:56:14;;;;;;;9.45;5.30;;;7.50;99.90;;;;;;5054072;28;20028;-63
2022/05/03 00:58:49;;;;;;;6.07;4.80;;;7.60;99.90;;;;;;5018463;28;20033;-62
2022/05/03 01:02:00;;;;;;;8.32;6.03;;;7.70;99.90;;;;;;5050238;28;20040;-62
2022/05/03 01:05:24;;;;;;;7.82;5.03;;;7.60;99.90;;;;;;5036030;28;20146;-62
2022/05/03 01:08:56;;;;;;;9.77;4.93;;;7.70;99.90;;;;;;5014098;28;20483;-62
2022/05/03 01:12:21;;;;;;;7.25;5.40;;;7.60;99.90;;;;;;5042904;28;20040;-63
2022/05/03 01:15:59;;;;;;;6.13;4.97;;;7.60;99.90;;;;;;5042078;28;20045;-62
2022/05/03 01:19:24;;;;;;;11.98;6.65;;;7.70;99.90;;;;;;5048424;28;20060;-62
2022/05/03 01:23:03;;;;;;;7.40;4.93;;;7.70;99.90;;;;;;5040292;28;20033;-62
2022/05/03 01:26:08;;;;;;;6.43;5.50;;;7.70;99.90;;;;;;5029567;28;20098;-62
2022/05/03 01:29:48;;;;;;;8.35;6.35;;;7.70;99.90;;;;;;5044552;28;20037;-62
2022/05/03 01:33:14;;;;;;;8.82;6.28;;;7.70;99.90;;;;;;5044645;28;20064;-62
2022/05/03 01:36:39;;;;;;;8.00;5.68;;;7.80;99.90;;;;;;5039035;28;20346;-62
2022/05/03 01:40:03;;;;;;;7.55;5.35;;;7.80;99.90;;;;;;5049843;28;20032;-62
2022/05/03 01:43:40;;;;;;;7.88;5.30;;;7.80;99.90;;;;;;5044109;28;20094;-62
2022/05/03 01:47:05;;;;;;;9.63;5.53;;;7.80;99.90;;;;;;5039940;28;20040;-61
2022/05/03 01:50:29;;;;;;;12.25;6.10;;;7.80;99.90;;;;;;5050037;28;20492;-62
2022/05/03 01:54:03;;;;;;;7.13;5.05;;;7.80;99.90;;;;;;5036911;28;20044;-62
2022/05/03 01:57:47;;;;;;;7.22;5.50;;;7.80;99.90;;;;;;5038356;28;20049;-62
2022/05/03 02:01:18;;;;;;;8.70;5.65;;;7.80;99.90;;;;;;5028594;28;20500;-62
2022/05/03 02:04:42;;;;;;;11.32;6.22;;;7.70;99.90;;;;;;5043858;28;20522;-62
2022/05/03 02:08:12;;;;;;;11.15;7.28;;;7.60;99.90;;;;;;5036315;28;20025;-61
2022/05/03 02:11:29;;;;;;;10.88;7.53;;;7.40;99.90;;;;;;5009826;28;20042;-62
2022/05/03 02:14:58;;;;;;;9.10;6.50;;;7.40;99.90;;;;;;5045462;28;20048;-61
2022/05/03 02:17:58;;;;;;;9.13;5.88;;;7.30;99.90;;;;;;5036577;28;20049;-62
2022/05/03 02:21:35;;;;;;;8.13;5.05;;;7.10;99.90;;;;;;5038326;28;20048;-62
2022/05/03 02:24:53;;;;;;;9.00;5.65;;;7.00;99.90;;;;;;5047208;28;20041;-62
2022/05/03 02:28:24;;;;;;;10.73;5.95;;;6.90;99.90;;;;;;5019460;28;20353;-61
2022/05/03 02:31:45;;;;;;;12.70;6.72;;;7.00;99.90;;;;;;5029099;28;20057;-62
2022/05/03 02:34:30;;;;;;;9.85;5.63;;;7.00;99.90;;;;;;5048959;28;20044;-62
2022/05/03 02:38:08;;;;;;;9.93;5.88;;;7.00;99.90;;;;;;5029550;28;20524;-62
2022/05/03 02:41:33;;;;;;;10.20;5.47;;;7.10;99.90;;;;;;5009388;28;20034;-61
2022/05/03 02:44:58;;;;;;;9.27;5.38;;;7.10;99.90;;;;;;5046601;28;20357;-62
2022/05/03 02:48:30;;;;;;;6.75;4.88;;;7.10;99.90;;;;;;5020230;28;20044;-62
2022/05/03 02:52:11;;;;;;;6.28;4.32;;;7.20;99.90;;;;;;5040359;28;20110;-62
2022/05/03 02:55:45;;;;;;;11.07;5.68;;;7.20;99.90;;;;;;5044965;28;20036;-61
2022/05/03 02:58:56;;;;;;;7.80;5.47;;;7.10;99.90;;;;;;5039071;28;20513;-62
2022/05/03 03:02:24;;;;;;;10.75;6.25;;;7.10;99.90;;;;;;5021767;28;20041;-63
2022/05/03 03:05:49;;;;;;;12.10;6.18;;;6.90;99.90;;;;;;5037478;28;20065;-62
2022/05/03 03:09:21;;;;;;;11.93;6.50;;;6.80;99.90;;;;;;5043095;28;20091;-62
2022/05/03 03:12:30;;;;;;;14.60;6.97;;;6.70;99.90;;;;;;5042345;28;20037;-62
2022/05/03 03:15:04;;;;;;;15.63;7.40;;;6.60;99.90;;;;;;5042924;28;20061;-61
2022/05/03 03:17:50;;;;;;;14.65;7.78;;;6.60;99.90;;;;;;5031216;28;20496;-61
2022/05/03 03:20:17;;;;;;;13.10;7.28;;;6.60;99.90;;;;;;5048510;28;20021;-61
2022/05/03 03:22:45;;;;;;;15.40;8.32;;;6.50;99.90;;;;;;5033227;28;20036;-61
2022/05/03 03:25:19;;;;;;;11.55;5.85;;;6.50;99.90;;;;;;5048462;28;20041;-61
2022/05/03 03:27:46;;;;;;;15.38;8.05;;;6.40;99.90;;;;;;5019854;28;20017;-61
2022/05/03 03:30:13;;;;;;;11.95;7.28;;;6.40;99.90;;;;;;5048396;28;20025;-61
2022/05/03 03:32:42;;;;;;;12.82;7.22;;;6.50;99.90;;;;;;5032452;28;20024;-61
2022/05/03 03:35:08;;;;;;;13.88;7.43;;;6.40;99.90;;;;;;5048307;28;20029;-61
2022/05/03 03:37:34;;;;;;;12.50;7.70;;;6.50;99.90;;;;;;5031599;28;20036;-61
2022/05/03 03:40:02;;;;;;;17.13;8.20;;;6.50;99.90;;;;;;5048138;28;20017;-61
2022/05/03 03:42:28;;;;;;;14.13;6.75;;;6.50;99.90;;;;;;5030784;28;20078;-61
2022/05/03 03:45:34;;;;;;;11.88;6.65;;;6.40;99.90;;;;;;5048206;28;20058;-60
2022/05/03 03:48:59;;;;;;;15.13;7.55;;;6.40;99.90;;;;;;5039157;28;20045;-61
2022/05/03 03:52:25;;;;;;;12.75;6.72;;;6.30;99.90;;;;;;5028016;28;20044;-62
2022/05/03 03:55:50;;;;;;;11.30;7.50;;;6.30;99.90;;;;;;5040437;28;20116;-61
2022/05/03 03:59:15;;;;;;;10.63;5.70;;;6.30;99.90;;;;;;5033488;28;20604;-60
2022/05/03 04:02:41;;;;;;;13.35;5.90;;;6.40;99.90;;;;;;5035436;28;20089;-61
2022/05/03 04:06:06;;;;;;;9.57;5.30;;;6.50;99.90;;;;;;5044918;28;20045;-60
2022/05/03 04:09:31;;;;;;;7.93;4.80;;;6.50;99.90;;;;;;5033693;28;20087;-60
2022/05/03 04:13:00;;;;;;;8.85;5.53;;;6.60;99.90;;;;;;5041152;28;20044;-60
2022/05/03 04:16:05;;;;;;;;;;;6.70;99.90;;;;;;5035472;28;20049;-61
2022/05/03 04:19:31;;;;;;;7.47;4.43;;;6.70;99.90;;;;;;5037384;28;19919;-60
2022/05/03 04:23:02;;;;;;;9.57;4.97;;;6.80;99.90;;;;;;5035179;28;20503;-60
2022/05/03 04:26:27;;;;;;;6.70;3.83;;;7.00;99.90;;;;;;5033416;28;20091;-61
2022/05/03 04:29:53;;;;;;;8.68;5.07;;;7.70;99.90;;;;;;5035052;28;20036;-61
2022/05/03 04:33:18;;;;;;;5.90;4.10;;;8.40;99.90;;;;;;5008037;28;20485;-60
2022/05/03 04:36:44;;;;;;;7.97;4.78;;;9.60;99.90;;;;;;5033956;28;20033;-61
2022/05/03 04:40:09;;;;;;;6.65;4.32;;;10.10;92.70;;;;;;5025699;28;20034;-61
2022/05/03 04:43:34;;;;;;;7.32;4.90;;;11.00;88.80;;;;;;5034021;28;20171;-61
2022/05/03 04:47:00;;;;;;;7.95;4.30;;;12.50;71.70;;;;;;5033501;28;20037;-62
2022/05/03 04:50:25;;;;;;;5.47;4.18;;;12.00;71.50;;;;;;5026446;28;20041;-61
2022/05/03 04:53:50;;;;;;;8.80;5.18;;;12.20;73.40;;;;;;5038693;28;20041;-61
2022/05/03 04:57:16;;;;;;;5.13;3.95;;;11.80;72.60;;;;;;5029166;28;20528;-61
2022/05/03 05:00:41;;;;;;;6.85;4.13;;;11.50;78.30;;;;;;5027652;28;20382;-61
2022/05/03 05:04:07;;;;;;;6.40;3.80;;;11.20;82.80;;;;;;5048453;28;20037;-61
2022/05/03 05:07:32;;;;;;;6.38;4.18;;;10.90;85.00;;;;;;5042907;28;20071;-61
2022/05/03 05:10:23;;;;;;;8.43;3.58;;;10.90;87.00;;;;;;5021838;28;20037;-61
2022/05/03 05:12:50;;;;;;;5.85;3.83;;;10.90;86.20;;;;;;5048808;28;20028;-62
2022/05/03 05:15:16;;;;;;;6.22;3.65;;;11.10;86.20;;;;;;5042665;28;20041;-61
2022/05/03 05:17:41;;;;;;;7.90;4.13;;;11.50;81.80;;;;;;5048164;28;20040;-61
2022/05/03 05:20:07;;;;;;;5.00;3.10;;;12.10;78.10;;;;;;5050996;28;20478;-60
2022/05/03 05:22:33;;;;;;;9.90;3.83;;;12.30;74.00;;;;;;5034308;28;20037;-60
2022/05/03 05:24:58;;;;;;;6.63;4.53;;;13.50;67.60;;;;;;5050892;28;20032;-60
2022/05/03 05:27:24;;;;;;;8.85;4.10;;;14.80;62.30;;;;;;5033095;28;20404;-60
2022/05/03 05:29:49;;;;;;;7.03;4.00;;;17.00;47.80;;;;;;5050998;28;20044;-60
2022/05/03 05:32:15;;;;;;;7.85;4.88;;;19.00;38.10;;;;;;5031549;28;20033;-60
2022/05/03 05:34:40;;;;;;;6.22;3.78;;;18.90;35.70;;;;;;5050771;28;20084;-61
2022/05/03 05:37:06;;;;;;;3.75;2.97;;;19.30;34.20;;;;;;5030360;28;20037;-61
2022/05/03 05:39:32;;;;;;;4.28;3.25;;;19.70;32.70;;;;;;5050733;28;20432;-60
2022/05/03 05:41:59;;;;;;;6.03;3.35;;;20.20;32.10;;;;;;5029132;28;20033;-60
2022/05/03 05:44:28;;;;;;;6.20;2.97;;;19.10;31.60;;;;;;5010699;28;20490;-60
2022/05/03 05:47:33;;;;;;;6.20;3.05;;;18.70;34.30;;;;;;5048736;28;20085;-60
2022/05/03 05:50:59;;;;;;;13.77;3.35;;;20.90;26.30;;;;;;5031164;28;20034;-60
2022/05/03 05:54:24;;;;;;;3.15;2.70;;;22.90;17.60;;;;;;5037828;28;20037;-61
2022/05/03 05:57:50;;;;;;;2.83;2.30;;;24.00;15.60;;;;;;5044302;28;20049;-60
2022/05/03 06:01:15;;;;;;;2.65;2.13;;;24.30;14.50;;;;;;5028005;28;20037;-61
2022/05/03 06:04:40;;;;;;;3.03;2.35;;;26.10;11.30;;;;;;5046152;28;20037;-61
2022/05/03 06:08:06;;;;;;;4.03;1.83;;;24.30;10.30;;;;;;5044456;28;20187;-61
2022/05/03 06:11:31;;;;;;;3.83;2.03;;;25.10;9.70;;;;;;5009755;28;20034;-61
2022/05/03 06:14:56;;;;;;;2.45;1.20;;;25.50;9.40;;;;;;5049658;28;20388;-61
2022/05/03 06:18:22;;;;;;;3.15;1.70;;;24.00;5.40;;;;;;5036571;28;20071;-61
2022/05/03 06:21:47;;;;;;;2.83;1.33;;;22.80;9.90;;;;;;5040695;28;20044;-60
2022/05/03 06:25:13;;;;;;;3.47;1.38;;;21.00;13.20;;;;;;5049305;28;20467;-61
2022/05/03 06:28:39;;;;;;;1.83;1.27;;;19.90;10.90;;;;;;5042007;28;20139;-61
2022/05/03 06:32:04;;;;;;;1.90;1.20;;;19.30;15.20;;;;;;5043691;28;20037;-61
2022/05/03 06:35:29;;;;;;;4.53;1.33;;;20.30;14.60;;;;;;5037590;28;20045;-61
2022/05/03 06:38:54;;;;;;;1.90;1.20;;;20.40;12.50;;;;;;5036143;28;20056;-61
2022/05/03 06:42:19;;;;;;;1.52;1.27;;;22.00;11.50;;;;;;5037784;28;20039;-61
2022/05/03 06:45:45;;;;;;;2.00;1.50;;;21.60;11.40;;;;;;5030694;28;20040;-61
2022/05/03 06:49:10;;;;;;;1.52;1.42;;;21.80;10.30;;;;;;5038517;28;20519;-60
2022/05/03 06:52:36;;;;;;;1.50;1.30;;;23.10;10.40;;;;;;5035896;28;20037;-60
2022/05/03 06:56:01;;;;;;;2.75;1.80;;;25.80;6.70;;;;;;5029470;28;20543;-61
2022/05/03 06:59:26;;;;;;;2.75;1.20;;;26.20;3.90;;;;;;5041344;28;20040;-61
2022/05/03 07:02:52;;;;;;;2.15;1.10;;;25.60;4.50;;;;;;5035855;28;20025;-61
2022/05/03 07:06:21;;;;;;;2.25;1.30;;;26.60;4.80;;;;;;5029156;28;20045;-61
2022/05/03 07:09:42;;;;;;;2.28;1.17;;;25.70;4.00;;;;;;5044991;28;20044;-71
2022/05/03 07:13:08;;;;;;;2.15;1.00;;;26.70;3.70;;;;;;5035593;28;20094;-71
2022/05/03 07:16:33;;;;;;;1.70;0.90;;;29.40;1.00;;;;;;5037039;28;20061;-72
2022/05/03 07:23:24;;;;;;;1.27;1.17;;;33.40;1.00;;;;;;5022689;28;20048;-71
2022/05/03 07:26:48;;;;;;;1.70;0.95;;;31.70;1.00;;;;;;5036562;28;20062;-72
2022/05/03 07:30:13;;;;;;;1.20;1.00;;;30.10;1.00;;;;;;5048270;28;20033;-72
2022/05/03 07:33:38;;;;;;;3.75;1.30;;;31.50;1.00;;;;;;5040816;28;20033;-72
2022/05/03 07:37:04;;;;;;;3.42;0.95;;;31.70;1.00;;;;;;5042436;28;20044;-72
2022/05/03 07:40:29;;;;;;;0.70;0.70;;;29.70;1.00;;;;;;5040832;28;20072;-72
2022/05/03 07:43:54;;;;;;;1.00;0.90;;;28.90;1.00;;;;;;5042517;28;20424;-72
2022/05/03 07:47:20;;;;;;;1.55;1.13;;;27.80;1.00;;;;;;5044343;28;20106;-71
2022/05/03 07:50:45;;;;;;;1.13;1.02;;;30.20;1.00;;;;;;5033425;28;20531;-71
2022/05/03 07:54:11;;;;;;;3.13;0.98;;;32.50;1.00;;;;;;5036074;28;20040;-71
2022/05/03 07:57:36;;;;;;;2.65;1.30;;;33.10;1.00;;;;;;5034663;28;20084;-71
2022/05/03 08:01:01;;;;;;;1.50;1.40;;;33.30;1.00;;;;;;5033525;28;20037;-72
2022/05/03 08:04:27;;;;;;;0.93;0.90;;;32.10;1.00;;;;;;5040291;28;20093;-72
2022/05/03 08:07:52;;;;;;;2.72;1.60;;;30.40;1.00;;;;;;5034721;28;20033;-71
2022/05/03 08:11:18;;;;;;;2.45;1.70;;;30.40;1.00;;;;;;5036650;28;20488;-72
2022/05/03 08:14:43;;;;;;;1.65;1.27;;;32.20;1.00;;;;;;5044587;28;20079;-72
2022/05/03 08:18:08;;;;;;;2.10;1.60;;;33.40;1.00;;;;;;5042090;28;20135;-72
2022/05/03 08:21:35;;;;;;;2.08;1.25;;;33.00;1.00;;;;;;5036573;28;20040;-71
2022/05/03 08:24:59;;;;;;;3.70;2.17;;;34.10;1.00;;;;;;5047124;28;20048;-71
2022/05/03 08:28:24;;;;;;;2.95;1.52;;;34.30;1.00;;;;;;5034564;28;20429;-72
2022/05/03 08:31:49;;;;;;;1.50;1.40;;;34.60;1.00;;;;;;5036586;28;20068;-71
2022/05/03 08:35:15;;;;;;;1.80;1.30;;;34.70;1.00;;;;;;5049001;28;20213;-72
2022/05/03 08:42:07;;;;;;;5.57;1.38;;;35.30;1.00;;;;;;5045345;28;20039;-71
2022/05/03 08:45:32;;;;;;;2.28;1.05;;;36.00;1.00;;;;;;5040405;28;20041;-71
2022/05/03 08:48:58;;;;;;;1.33;1.23;;;36.50;1.00;;;;;;5038301;28;20111;-72
2022/05/03 08:52:24;;;;;;;2.53;1.30;;;36.80;1.00;;;;;;5038141;28;20044;-71
2022/05/03 08:55:50;;;;;;;1.42;1.33;;;36.90;1.00;;;;;;5032813;28;20034;-72
2022/05/03 08:59:14;;;;;;;1.98;1.38;;;37.00;1.00;;;;;;5039821;28;20040;-72
2022/05/03 09:02:39;;;;;;;2.92;1.20;;;36.70;1.00;;;;;;5034792;28;20507;-72
2022/05/03 09:06:04;;;;;;;1.42;1.10;;;36.90;1.00;;;;;;5031094;28;20025;-72
2022/05/03 09:09:31;;;;;;;3.35;1.83;;;37.10;1.00;;;;;;5044446;28;20553;-72
2022/05/03 09:13:01;;;;;;;1.67;1.50;;;35.90;1.00;;;;;;5037023;28;20044;-71
2022/05/03 09:16:30;;;;;;;2.40;0.98;;;35.10;1.00;;;;;;5030725;28;20432;-72
2022/05/03 09:23:46;;;;;;;1.42;1.05;;;35.10;1.00;;;;;;5039736;28;20766;-72
2022/05/03 09:26:54;;;;;;;1.50;1.13;;;34.10;1.00;;;;;;5044003;28;20572;-72
2022/05/03 09:30:20;;;;;;;1.50;1.40;;;34.50;1.00;;;;;;5050448;28;20045;-72
2022/05/03 09:33:44;;;;;;;1.73;1.38;;;33.80;1.00;;;;;;5043385;28;20183;-72
2022/05/03 09:37:20;;;;;;;1.50;1.15;;;34.20;1.00;;;;;;5039071;28;20045;-72
2022/05/03 09:40:45;;;;;;;1.10;1.00;;;35.30;1.00;;;;;;5033334;28;20466;-72
2022/05/03 09:43:31;;;;;;;2.20;1.40;;;35.40;1.00;;;;;;5038551;28;20033;-59
2022/05/03 09:46:04;;;;;;;9.02;1.63;;;34.60;1.00;;;;;;5029866;28;20045;-59
2022/05/03 09:48:50;;;;;;;2.60;1.33;;;34.50;1.00;;;;;;5048042;28;20025;-59
2022/05/03 09:51:16;;;;;;;1.98;1.25;;;34.90;1.00;;;;;;5010810;28;20088;-59
2022/05/03 09:54:22;;;;;;;3.03;1.80;;;34.60;1.00;;;;;;5047082;28;20033;-59
2022/05/03 09:57:47;;;;;;;1.27;1.10;;;33.90;1.00;;;;;;5042119;28;20063;-58
2022/05/03 10:01:14;;;;;;;2.42;1.17;;;32.30;1.00;;;;;;5027962;28;20037;-58
2022/05/03 10:04:37;;;;;;;5.03;1.20;;;30.10;1.00;;;;;;5045221;28;20037;-58
2022/05/03 10:08:03;;;;;;;1.23;1.13;;;27.80;1.00;;;;;;5036731;28;20033;-58
2022/05/03 10:11:28;;;;;;;1.95;1.17;;;25.80;1.00;;;;;;5038851;28;20048;-59
2022/05/03 10:14:53;;;;;;;7.03;1.67;;;24.50;1.00;;;;;;5049361;28;20069;-57
2022/05/03 10:21:45;;;;;;;2.80;1.35;;;22.90;1.00;;;;;;5009973;28;20125;-57
2022/05/03 10:25:11;;;;;;;1.38;1.05;;;22.40;1.00;;;;;;5040033;28;20439;-58
2022/05/03 10:28:36;;;;;;;4.35;1.20;;;22.20;1.00;;;;;;5036513;28;20044;-58
2022/05/03 10:32:20;;;;;;;3.38;1.10;;;21.80;1.00;;;;;;5038326;28;20389;-57
2022/05/03 10:35:51;;;;;;;3.83;1.10;;;21.50;1.00;;;;;;5047782;28;20041;-58
2022/05/03 10:39:23;;;;;;;2.45;1.00;;;21.20;1.00;;;;;;5038993;28;20506;-57
2022/05/03 10:42:51;;;;;;;3.63;1.13;;;21.00;1.10;;;;;;5014546;28;20029;-57
2022/05/03 10:46:29;;;;;;;2.67;1.30;;;20.70;1.00;;;;;;5037614;28;20041;-58
2022/05/03 10:49:54;;;;;;;1.63;1.05;;;20.40;1.20;;;;;;5049045;28;20033;-58
2022/05/03 10:52:59;;;;;;;3.00;1.13;;;20.20;1.90;;;;;;5036063;28;20029;-59
2022/05/03 10:56:41;;;;;;;3.00;1.00;;;20.00;1.70;;;;;;5009178;28;20038;-57
2022/05/03 11:00:05;;;;;;;1.55;0.85;;;20.10;3.30;;;;;;5048405;28;20567;-58
2022/05/03 11:03:40;;;;;;;1.73;0.98;;;20.00;2.40;;;;;;5037945;28;20029;-58
2022/05/03 11:06:26;;;;;;;3.10;1.00;;;20.00;3.30;;;;;;5042730;28;20040;-58
2022/05/03 11:09:51;;;;;;;1.60;0.90;;;19.90;2.70;;;;;;5027193;28;20040;-58
2022/05/03 11:13:17;;;;;;;1.50;0.93;;;19.80;3.50;;;;;;5035616;28;20086;-58
2022/05/03 11:16:58;;;;;;;1.52;0.98;;;19.70;3.30;;;;;;5044979;28;20045;-59
2022/05/03 11:20:25;;;;;;;1.05;0.90;;;19.80;4.70;;;;;;5048165;28;20029;-59
2022/05/03 11:23:51;;;;;;;2.28;0.90;;;19.80;2.80;;;;;;5035703;28;20040;-57
2022/05/03 11:27:19;;;;;;;5.53;1.50;;;19.70;3.80;;;;;;5037229;28;20037;-58
2022/05/03 11:30:27;;;;;;;;;;;19.60;3.90;;;;;;5039955;28;20052;-58
2022/05/03 11:33:53;;;;;;;2.70;1.10;;;19.40;4.10;;;;;;5035424;28;19930;-58
2022/05/03 11:36:41;;;;;;;2.20;1.10;;;19.30;4.70;;;;;;5043728;28;20072;-58
2022/05/03 11:39:08;;;;;;;3.90;0.90;;;19.40;3.80;;;;;;5028660;28;20650;-59
2022/05/03 11:41:35;;;;;;;1.08;0.57;;;19.30;3.80;;;;;;5045978;28;20068;-59
2022/05/03 11:44:01;;;;;;;1.27;1.02;;;19.20;4.10;;;;;;5048104;28;20025;-58
2022/05/03 11:46:26;;;;;;;1.95;0.63;;;19.00;4.10;;;;;;5044109;28;20115;-58
2022/05/03 11:49:04;;;;;;;0.50;0.50;;;19.00;4.60;;;;;;5048238;28;20606;-58
2022/05/03 11:57:11;;;;;;;0.70;0.70;;;19.20;4.70;;;;;;5008687;28;20053;-58
2022/05/03 11:59:39;;;;;;;3.05;0.90;;;19.30;4.30;;;;;;5043947;28;20560;-58
2022/05/03 12:02:19;;;;;;;1.15;0.80;;;19.40;4.40;;;;;;5044877;28;20068;-58
2022/05/03 12:05:11;;;;;;;2.17;0.70;;;19.50;4.70;;;;;;5012922;28;20488;-58
2022/05/03 12:08:37;;;;;;;3.45;1.20;;;19.50;5.40;;;;;;5033370;28;20041;-58
2022/05/03 12:15:12;;;;;;;2.05;0.80;;;19.10;5.30;;;;;;5008593;28;19924;-58
2022/05/03 12:18:38;;;;;;;2.83;0.88;;;18.90;5.70;;;;;;5047724;28;20049;-58
2022/05/03 12:22:03;;;;;;;2.35;0.80;;;19.10;6.20;;;;;;5039262;28;20064;-59
2022/05/03 12:25:28;;;;;;;2.28;0.60;;;19.30;5.50;;;;;;5034616;28;20111;-58
2022/05/03 12:28:56;;;;;;;1.17;0.98;;;19.40;5.40;;;;;;5028312;28;20033;-58
2022/05/03 12:32:22;;;;;;;2.25;0.90;;;19.30;5.00;;;;;;5044294;28;20037;-58
2022/05/03 12:35:48;;;;;;;0.98;0.80;;;19.40;5.00;;;;;;5034585;28;20033;-58
2022/05/03 12:39:13;;;;;;;2.92;0.93;;;19.40;6.00;;;;;;5043496;28;20051;-58
2022/05/03 12:42:38;;;;;;;0.70;0.70;;;19.30;5.70;;;;;;5047485;28;20041;-58
2022/05/03 12:45:55;;;;;;;1.20;0.70;;;19.00;5.30;;;;;;5034785;28;20040;-58
2022/05/03 12:49:21;;;;;;;1.23;0.73;;;19.00;5.80;;;;;;5008171;28;20416;-58
2022/05/03 12:52:46;;;;;;;0.60;0.50;;;19.10;6.20;;;;;;5047532;28;20029;-59
2022/05/03 12:59:35;;;;;;;0.68;0.57;;;19.00;6.00;;;;;;5008197;28;20049;-58
2022/05/03 13:03:01;;;;;;;0.77;0.47;;;19.00;5.90;;;;;;5041474;28;20404;-58
2022/05/03 13:06:26;;;;;;;0.77;0.50;;;19.00;5.90;;;;;;5034564;28;20099;-58
2022/05/03 13:09:51;;;;;;;0.77;0.40;;;19.10;6.00;;;;;;5043902;28;20040;-58
2022/05/03 13:13:18;;;;;;;0.63;0.52;;;19.30;6.40;;;;;;5043396;28;20044;-58
2022/05/03 13:16:44;;;;;;;1.75;0.57;;;19.30;5.60;;;;;;5033852;28;20048;-58
2022/05/03 13:20:07;;;;;;;1.42;0.57;;;19.30;6.00;;;;;;5006156;28;20034;-58
2022/05/03 13:23:33;;;;;;;3.80;0.82;;;19.30;6.00;;;;;;5036449;28;20448;-58
2022/05/03 13:26:58;;;;;;;2.17;0.60;;;19.50;6.30;;;;;;5043103;28;20041;-58
2022/05/03 13:30:24;;;;;;;4.45;0.80;;;19.70;5.60;;;;;;5036220;28;20404;-59
2022/05/03 13:33:49;;;;;;;2.35;0.60;;;19.80;5.50;;;;;;5032348;28;20068;-58
2022/05/03 13:40:39;;;;;;;0.63;0.50;;;20.00;5.20;;;;;;5019215;28;20096;-59
2022/05/03 13:44:05;;;;;;;1.45;0.70;;;20.00;5.20;;;;;;5030578;28;20041;-59
2022/05/03 13:47:30;;;;;;;2.65;0.57;;;20.10;4.90;;;;;;5039064;28;20459;-59
2022/05/03 13:50:55;;;;;;;4.13;0.40;;;20.20;4.80;;;;;;5042500;28;20044;-58
2022/05/03 13:54:20;;;;;;;0.47;0.47;;;20.30;4.80;;;;;;5030453;28;20029;-58
2022/05/03 13:57:46;;;;;;;0.52;0.45;;;20.40;4.90;;;;;;5046561;28;20049;-58
2022/05/03 14:01:11;;;;;;;1.35;0.47;;;20.50;4.90;;;;;;5036904;28;20037;-59
2022/05/03 14:04:36;;;;;;;0.70;0.50;;;20.50;4.60;;;;;;5038593;28;20040;-58
2022/05/03 14:08:02;;;;;;;0.55;0.55;;;20.40;4.70;;;;;;5049605;28;20039;-58
2022/05/03 14:11:27;;;;;;;0.60;0.60;;;20.40;4.80;;;;;;5042250;28;20118;-58
2022/05/03 14:14:52;;;;;;;0.93;0.50;;;20.30;4.90;;;;;;5009849;28;20232;-59
2022/05/03 14:18:18;;;;;;;1.98;0.63;;;20.10;5.70;;;;;;5029663;28;20402;-58
2022/05/03 14:21:43;;;;;;;0.82;0.82;;;19.90;7.30;;;;;;5044168;28;20037;-57
2022/05/03 14:25:10;;;;;;;1.90;0.82;;;19.80;7.30;;;;;;5036286;28;20036;-58
2022/05/03 14:28:34;;;;;;;2.00;0.93;;;19.80;7.20;;;;;;5034779;28;20119;-58
2022/05/03 14:31:59;;;;;;;1.00;0.90;;;19.80;8.30;;;;;;5039495;28;20407;-58
2022/05/03 14:35:25;;;;;;;1.27;0.77;;;19.70;8.70;;;;;;5035117;28;20044;-58
2022/05/03 14:38:50;;;;;;;4.25;1.02;;;19.40;8.60;;;;;;5029292;28;20052;-58
2022/05/03 14:42:17;;;;;;;2.28;0.93;;;19.10;9.20;;;;;;5043983;28;20064;-58
2022/05/03 14:45:41;;;;;;;3.50;1.00;;;18.90;9.60;;;;;;5042978;28;20037;-58
2022/05/03 14:49:08;;;;;;;1.13;0.75;;;18.70;10.90;;;;;;5037775;28;20049;-58
2022/05/03 14:52:31;;;;;;;1.52;1.25;;;18.80;12.10;;;;;;5048921;28;20040;-58
2022/05/03 15:02:59;;;;;;;1.10;0.95;;;18.80;12.90;;;;;;5009295;28;20040;-58
2022/05/03 15:06:25;;;;;;;1.33;1.10;;;18.60;13.10;;;;;;5044920;28;20324;-56
2022/05/03 15:09:50;;;;;;;5.75;1.20;;;18.50;14.10;;;;;;5042891;28;20404;-58
2022/05/03 15:13:18;;;;;;;2.53;1.30;;;18.40;13.30;;;;;;5042960;28;20325;-58
2022/05/03 15:16:44;;;;;;;2.92;0.98;;;18.30;13.40;;;;;;5043025;28;20131;-59
2022/05/03 15:20:09;;;;;;;1.63;1.20;;;18.20;14.00;;;;;;5039173;28;20048;-58
2022/05/03 15:26:58;;;;;;;2.08;1.20;;;18.00;14.20;;;;;;5040673;28;20106;-57
2022/05/03 15:30:24;;;;;;;1.27;1.17;;;18.00;15.10;;;;;;5035207;28;20029;-58
2022/05/03 15:33:49;;;;;;;2.20;1.30;;;17.80;14.60;;;;;;5044225;28;20033;-58
2022/05/03 15:37:14;;;;;;;2.28;1.42;;;17.80;14.80;;;;;;5016147;28;20519;-58
2022/05/03 15:40:40;;;;;;;2.00;1.20;;;17.70;15.00;;;;;;5028239;28;20044;-58
2022/05/03 15:43:26;;;;;;;1.40;0.93;;;17.80;15.80;;;;;;5018912;28;20026;-55
2022/05/03 15:45:52;;;;;;;1.83;0.90;;;17.80;14.60;;;;;;5047138;28;20075;-59
2022/05/03 15:48:18;;;;;;;1.60;0.98;;;17.80;14.30;;;;;;5032829;28;20053;-57
2022/05/03 15:50:44;;;;;;;3.97;1.30;;;17.70;14.60;;;;;;5048013;28;20064;-59
2022/05/03 15:53:09;;;;;;;3.42;0.90;;;17.70;15.20;;;;;;5032686;28;20083;-59
2022/05/03 15:55:35;;;;;;;0.80;0.80;;;17.70;14.70;;;;;;5037886;28;20031;-59
2022/05/03 15:58:00;;;;;;;1.63;1.20;;;17.70;14.70;;;;;;5045194;28;20068;-59
2022/05/03 16:00:26;;;;;;;3.25;1.20;;;17.60;15.20;;;;;;5037023;28;20029;-59
2022/05/03 16:02:51;;;;;;;1.17;0.80;;;17.50;16.20;;;;;;5047251;28;20040;-59
2022/05/03 16:05:22;;;;;;;1.48;1.23;;;17.40;15.70;;;;;;5032104;28;20057;-58
2022/05/03 16:07:48;;;;;;;2.72;1.38;;;17.40;15.80;;;;;;5047372;28;20025;-59
2022/05/03 16:10:15;;;;;;;1.65;1.20;;;17.30;15.80;;;;;;5031306;28;20035;-59
2022/05/03 16:12:41;;;;;;;2.65;1.40;;;17.30;16.20;;;;;;5046421;28;20063;-59
2022/05/03 16:15:08;;;;;;;1.48;1.25;;;17.20;16.30;;;;;;5031423;28;20052;-59
2022/05/03 16:17:34;;;;;;;0.77;0.70;;;17.20;16.40;;;;;;5046896;28;20120;-59
2022/05/03 16:20:00;;;;;;;1.95;1.30;;;17.10;16.40;;;;;;5045088;28;20112;-58
2022/05/03 16:22:26;;;;;;;1.00;0.90;;;17.20;16.50;;;;;;5046764;28;20435;-58
2022/05/03 16:24:51;;;;;;;2.78;1.13;;;17.20;16.40;;;;;;5028361;28;20192;-58
2022/05/03 16:27:17;;;;;;;1.25;1.15;;;17.20;16.20;;;;;;5046918;28;20029;-58
2022/05/03 16:29:43;;;;;;;1.20;1.05;;;17.00;15.90;;;;;;5027054;28;20029;-59
2022/05/03 16:32:09;;;;;;;1.10;1.00;;;17.00;16.20;;;;;;5046840;28;20033;-59
2022/05/03 16:34:35;;;;;;;1.00;0.90;;;16.90;16.50;;;;;;5025609;28;20504;-58
2022/05/03 16:42:29;;;;;;;1.23;1.10;;;16.80;17.00;;;;;;5047301;28;20028;-59
2022/05/03 16:44:55;;;;;;;1.52;1.23;;;16.80;17.10;;;;;;5028699;28;20025;-59
2022/05/03 16:47:25;;;;;;;2.92;1.25;;;16.80;17.10;;;;;;5047071;28;20056;-58
2022/05/03 16:49:52;;;;;;;2.13;0.98;;;16.80;17.20;;;;;;5026850;28;20489;-59
2022/05/03 16:52:19;;;;;;;1.30;1.20;;;16.80;17.20;;;;;;5046513;28;20021;-58
2022/05/03 16:54:46;;;;;;;3.42;0.95;;;16.90;17.70;;;;;;5026841;28;20226;-59
2022/05/03 16:57:11;;;;;;;0.80;0.80;;;16.90;17.20;;;;;;5050402;28;20037;-59
2022/05/03 16:59:38;;;;;;;2.45;1.00;;;17.00;17.10;;;;;;5029268;28;20388;-58
2022/05/03 17:02:05;;;;;;;1.27;0.80;;;17.10;16.80;;;;;;5050618;28;20396;-59
2022/05/03 17:04:31;;;;;;;1.10;0.90;;;17.10;16.60;;;;;;5050847;28;20118;-59
2022/05/03 17:06:57;;;;;;;2.53;0.70;;;17.20;16.80;;;;;;5050962;28;20045;-59
2022/05/03 17:09:23;;;;;;;2.42;1.20;;;17.10;16.60;;;;;;5026628;28;20143;-59
2022/05/03 17:11:50;;;;;;;0.80;0.75;;;17.10;16.60;;;;;;5030471;28;20025;-59